Time;durP1;ratioP1;P1;durP2;ratioP2;P2;SDS_P1;SDS_P2;PMS_P1;PMS_P2;Temp;Humidity;BMP_temperature;BMP_pressure;BME280_temperature;BME280_humidity;BME280_pressure;Samples;Min_cycle;Max_cycle;Signal;HPM_P1;HPM_P2
2024/03/03 00:01:11;;;;;;;;;;;;;;;12.30;73.60;100185.06;4841164;29;19924;-80
2024/03/03 00:04:03;;;;;;;;;;;;;;;12.24;73.63;100181.75;4828825;29;19917;-80
2024/03/03 00:06:56;;;;;;;;;;;;;;;12.23;73.62;100184.84;4829345;29;20310;-80
2024/03/03 00:09:47;;;;;;;;;;;;;;;12.25;73.87;100182.56;4829572;29;19928;-79
2024/03/03 00:12:39;;;;;;;;;;;;;;;12.20;73.27;100178.13;4828011;29;19920;-78
2024/03/03 00:15:31;;;;;;;;;;;;;;;12.13;73.36;100174.38;4840775;29;19916;-80
2024/03/03 00:18:23;;;;;;;;;;;;;;;12.12;73.66;100172.78;4840546;29;20286;-80
2024/03/03 00:21:18;;;;;;;;;;;;;;;12.17;73.41;100167.09;4840542;29;19920;-78
2024/03/03 00:24:08;;;;;;;;;;;;;;;12.14;73.63;100148.72;4840772;29;19920;-80
2024/03/03 00:27:00;;;;;;;;;;;;;;;12.20;73.28;100150.06;4840878;29;19920;-80
2024/03/03 00:29:52;;;;;;;;;;;;;;;12.19;73.42;100141.09;4830971;29;19921;-78
2024/03/03 00:32:47;;;;;;;;;;;;;;;12.19;73.03;100143.81;4840520;29;19916;-80
2024/03/03 00:35:39;;;;;;;;;;;;;;;12.18;72.56;100147.69;4840590;29;19921;-78
2024/03/03 00:38:31;;;;;;;;;;;;;;;12.16;72.78;100147.22;4830141;29;20310;-78
2024/03/03 00:41:23;;;;;;;;;;;;;;;12.14;72.64;100154.94;4840626;29;20287;-80
2024/03/03 00:44:15;;;;;;;;;;;;;;;12.13;72.48;100153.38;4826455;29;19916;-78
2024/03/03 00:47:04;;;;;;;;;;;;;;;12.15;72.38;100150.28;4832814;29;19916;-78
2024/03/03 00:49:57;;;;;;;;;;;;;;;12.14;72.28;100143.28;4832456;29;19920;-79
2024/03/03 00:52:49;;;;;;;;;;;;;;;12.08;72.46;100136.44;4840328;29;19920;-78
2024/03/03 00:55:41;;;;;;;;;;;;;;;12.06;72.39;100136.78;4829144;29;19916;-79
2024/03/03 00:58:30;;;;;;;;;;;;;;;12.07;72.42;100132.91;4827259;29;19916;-79
2024/03/03 01:01:22;;;;;;;;;;;;;;;12.09;72.30;100130.63;4830438;29;19920;-79
2024/03/03 01:04:14;;;;;;;;;;;;;;;12.08;72.27;100131.00;4828648;29;19917;-78
2024/03/03 01:07:06;;;;;;;;;;;;;;;12.10;72.02;100123.25;4826747;29;20659;-78
2024/03/03 01:09:58;;;;;;;;;;;;;;;12.05;71.98;100123.47;4829842;29;19920;-79
2024/03/03 01:12:47;;;;;;;;;;;;;;;11.98;72.45;100124.84;4828194;29;20394;-78
2024/03/03 01:15:37;;;;;;;;;;;;;;;11.94;72.39;100115.75;4831213;29;19916;-79
2024/03/03 01:18:29;;;;;;;;;;;;;;;11.94;72.42;100115.75;4828944;29;19921;-80
2024/03/03 01:21:18;;;;;;;;;;;;;;;11.89;72.70;100109.72;4840297;29;19921;-81
2024/03/03 01:24:08;;;;;;;;;;;;;;;11.83;72.92;100098.28;4830837;29;19916;-81
2024/03/03 01:27:00;;;;;;;;;;;;;;;11.82;73.26;100095.88;4828863;29;19916;-80
2024/03/03 01:29:52;;;;;;;;;;;;;;;11.86;73.01;100094.88;4839722;29;19924;-83
2024/03/03 01:32:44;;;;;;;;;;;;;;;11.85;73.26;100098.72;4840120;29;19916;-79
2024/03/03 01:35:36;;;;;;;;;;;;;;;11.80;73.38;100089.97;4832496;29;19916;-81
2024/03/03 01:38:28;;;;;;;;;;;;;;;11.73;72.93;100082.38;4825985;29;19920;-80
2024/03/03 01:41:20;;;;;;;;;;;;;;;11.74;72.49;100086.66;4840134;29;20551;-80
2024/03/03 01:44:12;;;;;;;;;;;;;;;11.62;73.44;100089.34;4839230;29;19916;-81
2024/03/03 01:47:05;;;;;;;;;;;;;;;11.58;73.20;100089.22;4830835;29;19916;-80
2024/03/03 01:49:55;;;;;;;;;;;;;;;11.59;73.60;100077.19;4827837;29;19920;-80
2024/03/03 01:52:48;;;;;;;;;;;;;;;11.62;74.38;100080.38;4826553;29;20379;-81
2024/03/03 01:55:40;;;;;;;;;;;;;;;11.58;73.68;100082.97;4830083;29;19916;-80
2024/03/03 01:58:33;;;;;;;;;;;;;;;11.46;73.48;100080.22;4830868;29;19916;-79
2024/03/03 02:01:21;;;;;;;;;;;;;;;11.49;73.76;100085.78;4843167;29;19920;-80
2024/03/03 02:04:13;;;;;;;;;;;;;;;11.54;73.35;100076.59;4832297;29;19908;-79
2024/03/03 02:07:05;;;;;;;;;;;;;;;11.57;73.67;100075.94;4830626;29;19916;-79
2024/03/03 02:09:57;;;;;;;;;;;;;;;11.56;73.15;100077.06;4833534;29;19920;-80
2024/03/03 02:12:49;;;;;;;;;;;;;;;11.57;72.70;100078.66;4842866;29;20344;-80
2024/03/03 02:15:41;;;;;;;;;;;;;;;11.55;71.93;100076.28;4829726;29;20406;-79
2024/03/03 02:18:33;;;;;;;;;;;;;;;11.52;72.50;100081.59;4832702;29;19916;-79
2024/03/03 02:21:28;;;;;;;;;;;;;;;11.46;72.80;100072.06;4830449;29;19916;-79
2024/03/03 02:24:21;;;;;;;;;;;;;;;11.42;72.66;100082.03;4835088;29;19912;-79
2024/03/03 02:27:13;;;;;;;;;;;;;;;11.44;72.96;100085.19;4832000;29;19916;-80
2024/03/03 02:30:08;;;;;;;;;;;;;;;11.45;73.69;100090.31;4842463;29;19920;-79
2024/03/03 02:33:00;;;;;;;;;;;;;;;11.42;72.91;100084.75;4830185;29;20391;-80
2024/03/03 02:35:52;;;;;;;;;;;;;;;11.37;73.03;100079.53;4831082;29;20291;-80
2024/03/03 02:38:49;;;;;;;;;;;;;;;11.34;73.31;100089.13;4829029;29;20588;-80
2024/03/03 02:41:41;;;;;;;;;;;;;;;11.35;72.76;100090.75;4842625;29;19916;-79
2024/03/03 02:44:33;;;;;;;;;;;;;;;11.36;73.43;100086.88;4830061;29;19916;-81
2024/03/03 02:47:25;;;;;;;;;;;;;;;11.30;73.92;100084.72;4833343;29;19920;-79
2024/03/03 02:50:17;;;;;;;;;;;;;;;11.29;73.84;100081.19;4842429;29;19921;-81
2024/03/03 02:53:09;;;;;;;;;;;;;;;11.33;73.69;100092.19;4842400;29;20379;-81
2024/03/03 02:56:00;;;;;;;;;;;;;;;11.34;73.52;100094.59;4842291;29;19920;-82
2024/03/03 02:58:52;;;;;;;;;;;;;;;11.30;73.54;100082.78;4830387;29;19916;-80
2024/03/03 03:01:44;;;;;;;;;;;;;;;11.28;73.68;100078.78;4833310;29;19916;-80
2024/03/03 03:04:36;;;;;;;;;;;;;;;11.23;73.64;100079.00;4831708;29;20314;-80
2024/03/03 03:07:28;;;;;;;;;;;;;;;11.17;73.52;100077.66;4828561;29;19916;-81
2024/03/03 03:10:20;;;;;;;;;;;;;;;11.13;73.22;100074.78;4841972;29;20286;-80
2024/03/03 03:13:12;;;;;;;;;;;;;;;11.17;72.97;100067.56;4841999;29;19916;-80
2024/03/03 03:16:05;;;;;;;;;;;;;;;11.11;72.83;100075.13;4828809;29;19916;-80
2024/03/03 03:18:57;;;;;;;;;;;;;;;11.13;72.68;100070.13;4831531;29;20378;-79
2024/03/03 03:21:47;;;;;;;;;;;;;;;11.10;72.80;100078.97;4829961;29;19920;-80
2024/03/03 03:24:39;;;;;;;;;;;;;;;11.06;72.98;100072.63;4828148;29;19917;-80
2024/03/03 03:27:31;;;;;;;;;;;;;;;11.00;72.86;100063.06;4831606;29;19925;-80
2024/03/03 03:30:22;;;;;;;;;;;;;;;10.99;73.27;100063.38;4829274;29;19920;-80
2024/03/03 03:33:15;;;;;;;;;;;;;;;11.00;73.38;100062.25;4841850;29;19916;-81
2024/03/03 03:36:09;;;;;;;;;;;;;;;11.04;73.13;100057.72;4830404;29;19921;-80
2024/03/03 03:38:59;;;;;;;;;;;;;;;11.00;73.13;100052.19;4828036;29;19916;-79
2024/03/03 03:41:51;;;;;;;;;;;;;;;10.96;73.37;100056.69;4841264;29;20454;-79
2024/03/03 03:44:43;;;;;;;;;;;;;;;10.96;73.36;100056.69;4841265;29;19916;-80
2024/03/03 03:47:35;;;;;;;;;;;;;;;11.00;73.64;100049.47;4841406;29;19920;-79
2024/03/03 03:50:27;;;;;;;;;;;;;;;11.03;73.29;100045.25;4830756;29;19925;-80
2024/03/03 03:53:19;;;;;;;;;;;;;;;11.03;73.17;100050.69;4841103;29;19917;-79
2024/03/03 03:56:11;;;;;;;;;;;;;;;11.03;73.39;100048.78;4841105;29;19917;-79
2024/03/03 03:59:02;;;;;;;;;;;;;;;10.99;73.37;100044.34;4829398;29;20343;-80
2024/03/03 04:01:54;;;;;;;;;;;;;;;10.98;73.64;100043.53;4827793;29;19916;-80
2024/03/03 04:04:46;;;;;;;;;;;;;;;11.01;73.47;100056.50;4830991;29;19925;-79
2024/03/03 04:07:38;;;;;;;;;;;;;;;11.02;73.59;100058.06;4840988;29;20383;-78
2024/03/03 04:10:30;;;;;;;;;;;;;;;11.03;73.23;100050.69;4840878;29;19924;-79
2024/03/03 04:13:22;;;;;;;;;;;;;;;11.03;73.11;100047.97;4840953;29;19920;-80
2024/03/03 04:16:14;;;;;;;;;;;;;;;11.03;73.23;100037.09;4840992;29;19916;-79
2024/03/03 04:19:06;;;;;;;;;;;;;;;11.02;73.16;100043.69;4830734;29;19916;-80
2024/03/03 04:21:58;;;;;;;;;;;;;;;10.92;73.20;100054.97;4840839;29;19920;-79
2024/03/03 04:24:50;;;;;;;;;;;;;;;10.93;73.28;100045.66;4840692;29;19920;-79
2024/03/03 04:27:42;;;;;;;;;;;;;;;10.93;72.91;100045.66;4830680;29;19920;-80
2024/03/03 04:30:34;;;;;;;;;;;;;;;10.86;72.42;100043.50;4840491;29;19924;-79
2024/03/03 04:33:26;;;;;;;;;;;;;;;10.85;72.38;100032.94;4827368;29;19916;-80
2024/03/03 04:36:18;;;;;;;;;;;;;;;10.79;72.59;100035.06;4840622;29;19920;-79
2024/03/03 04:39:10;;;;;;;;;;;;;;;10.72;72.80;100024.72;4827845;29;19920;-79
2024/03/03 04:42:02;;;;;;;;;;;;;;;10.73;72.24;100025.53;4840517;29;19916;-79
2024/03/03 04:44:54;;;;;;;;;;;;;;;10.70;73.22;100024.28;4840308;29;19920;-79
2024/03/03 04:47:46;;;;;;;;;;;;;;;10.70;73.26;100027.00;4840244;29;20303;-79
2024/03/03 04:50:42;;;;;;;;;;;;;;;10.73;73.36;100020.88;4840270;29;19925;-79
2024/03/03 04:53:34;;;;;;;;;;;;;;;10.74;73.01;100018.97;4836180;29;19916;-78
2024/03/03 04:56:27;;;;;;;;;;;;;;;10.77;73.45;100009.34;4844431;29;19916;-79
2024/03/03 04:59:17;;;;;;;;;;;;;;;10.78;73.23;100017.16;4839902;29;19916;-79
2024/03/03 05:02:09;;;;;;;;;;;;;;;10.79;73.22;100021.47;4827699;29;19916;-79
2024/03/03 05:05:02;;;;;;;;;;;;;;;10.78;72.88;100032.69;4830643;29;19917;-79
2024/03/03 05:07:54;;;;;;;;;;;;;;;10.75;72.82;100030.66;4828681;29;19916;-78
2024/03/03 05:10:46;;;;;;;;;;;;;;;10.73;72.72;100034.47;4840304;29;19924;-79
2024/03/03 05:13:39;;;;;;;;;;;;;;;10.78;72.59;100049.00;4826514;29;19920;-80
2024/03/03 05:16:31;;;;;;;;;;;;;;;10.82;72.65;100049.94;4840361;29;19917;-80
2024/03/03 05:19:23;;;;;;;;;;;;;;;10.78;72.27;100044.34;4833340;29;20298;-80
2024/03/03 05:22:15;;;;;;;;;;;;;;;10.74;72.16;100048.88;4832836;29;19939;-80
2024/03/03 05:25:08;;;;;;;;;;;;;;;10.73;72.30;100039.13;4841120;29;19917;-78
2024/03/03 05:28:00;;;;;;;;;;;;;;;10.77;72.25;100044.72;4830189;29;19920;-79
2024/03/03 05:30:52;;;;;;;;;;;;;;;10.74;72.35;100046.16;4830421;29;19920;-79
2024/03/03 05:33:44;;;;;;;;;;;;;;;10.72;72.55;100049.19;4829727;29;20010;-79
2024/03/03 05:36:33;;;;;;;;;;;;;;;10.75;72.36;100055.91;4842996;29;19916;-79
2024/03/03 05:39:25;;;;;;;;;;;;;;;10.72;72.56;100045.69;4837032;29;19917;-79
2024/03/03 05:42:17;;;;;;;;;;;;;;;10.70;73.36;100054.19;4839706;29;19916;-80
2024/03/03 05:45:09;;;;;;;;;;;;;;;10.69;73.65;100059.97;4843566;29;19920;-80
2024/03/03 05:48:01;;;;;;;;;;;;;;;10.72;73.73;100051.13;4842932;29;19920;-79
2024/03/03 05:50:53;;;;;;;;;;;;;;;10.79;73.71;100051.41;4832397;29;19924;-79
2024/03/03 05:53:46;;;;;;;;;;;;;;;10.77;74.06;100048.19;4827842;29;19936;-79
2024/03/03 05:56:38;;;;;;;;;;;;;;;10.75;74.14;100050.47;4834447;29;19916;-78
2024/03/03 05:59:30;;;;;;;;;;;;;;;10.80;74.07;100055.72;4832933;29;19924;-79
2024/03/03 06:02:22;;;;;;;;;;;;;;;10.83;73.65;100051.53;4843137;29;20311;-79
2024/03/03 06:05:11;;;;;;;;;;;;;;;10.79;73.95;100059.56;4843212;29;20371;-80
2024/03/03 06:08:03;;;;;;;;;;;;;;;10.78;74.49;100055.25;4842288;29;19916;-79
2024/03/03 06:10:55;;;;;;;;;;;;;;;10.80;74.26;100049.47;4826651;29;19924;-79
2024/03/03 06:13:48;;;;;;;;;;;;;;;10.72;74.90;100046.47;4839037;29;19920;-79
2024/03/03 06:16:40;;;;;;;;;;;;;;;10.79;74.75;100045.16;4831603;29;19924;-79
2024/03/03 06:19:37;;;;;;;;;;;;;;;10.83;74.43;100041.44;4839697;29;19920;-77
2024/03/03 06:22:29;;;;;;;;;;;;;;;10.84;74.54;100043.03;4841417;29;19916;-78
2024/03/03 06:25:21;;;;;;;;;;;;;;;10.87;74.68;100042.34;4829683;29;19920;-78
2024/03/03 06:28:12;;;;;;;;;;;;;;;10.90;74.53;100044.44;4841989;29;19920;-78
2024/03/03 06:31:04;;;;;;;;;;;;;;;10.92;74.41;100057.69;4830793;29;19928;-79
2024/03/03 06:34:01;;;;;;;;;;;;;;;10.96;74.54;100059.41;4839980;29;20379;-79
2024/03/03 06:36:53;;;;;;;;;;;;;;;10.98;74.39;100054.44;4829688;29;20318;-78
2024/03/03 06:39:48;;;;;;;;;;;;;;;11.01;74.16;100058.41;4840697;29;19916;-79
2024/03/03 06:42:40;;;;;;;;;;;;;;;11.04;74.10;100057.72;4841598;29;19920;-78
2024/03/03 06:45:32;;;;;;;;;;;;;;;11.06;74.00;100058.22;4831751;29;19916;-79
2024/03/03 06:48:22;;;;;;;;;;;;;;;11.08;73.92;100055.94;4829468;29;19916;-79
2024/03/03 06:51:14;;;;;;;;;;;;;;;11.07;73.99;100052.41;4832810;29;19924;-78
2024/03/03 06:54:06;;;;;;;;;;;;;;;11.06;73.88;100059.00;4830764;29;19916;-78
2024/03/03 06:56:58;;;;;;;;;;;;;;;11.12;73.99;100068.53;4828776;29;19917;-78
2024/03/03 06:59:50;;;;;;;;;;;;;;;11.17;73.54;100073.00;4841831;29;19920;-78
2024/03/03 07:06:07;;;;;;;;;;;;;;;11.23;73.73;100065.38;4821424;29;19916;-79
2024/03/03 07:08:59;;;;;;;;;;;;;;;11.25;73.77;100063.16;4841692;29;20137;-78
2024/03/03 07:11:52;;;;;;;;;;;;;;;11.29;73.70;100070.31;4841849;29;19925;-78
2024/03/03 07:14:44;;;;;;;;;;;;;;;11.32;73.63;100063.41;4841849;29;19916;-78
2024/03/03 07:17:36;;;;;;;;;;;;;;;11.37;73.56;100072.16;4841845;29;19916;-78
2024/03/03 07:20:25;;;;;;;;;;;;;;;11.38;73.73;100064.75;4831980;29;19916;-78
2024/03/03 07:23:17;;;;;;;;;;;;;;;11.38;73.69;100068.28;4841788;29;19921;-79
2024/03/03 07:26:09;;;;;;;;;;;;;;;11.37;73.87;100066.72;4828350;29;19917;-78
2024/03/03 07:29:01;;;;;;;;;;;;;;;11.43;74.09;100070.00;4831124;29;19916;-78
2024/03/03 07:31:56;;;;;;;;;;;;;;;11.42;73.94;100063.78;4829259;29;20370;-79
2024/03/03 07:34:49;;;;;;;;;;;;;;;11.48;73.87;100062.41;4832454;29;19916;-78
2024/03/03 07:37:40;;;;;;;;;;;;;;;11.49;73.68;100063.22;4841221;29;19925;-78
2024/03/03 07:40:37;;;;;;;;;;;;;;;11.50;73.72;100064.81;4841324;29;19920;-79
2024/03/03 07:43:28;;;;;;;;;;;;;;;11.52;73.78;100057.91;4827953;29;19917;-78
2024/03/03 07:46:20;;;;;;;;;;;;;;;11.54;73.69;100065.72;4841369;29;19924;-78
2024/03/03 07:49:13;;;;;;;;;;;;;;;11.54;73.71;100063.78;4840800;29;19916;-78
2024/03/03 07:52:05;;;;;;;;;;;;;;;11.54;73.93;100063.00;4830862;29;19920;-78
2024/03/03 07:54:57;;;;;;;;;;;;;;;11.57;73.83;100059.59;4841271;29;19916;-79
2024/03/03 07:57:49;;;;;;;;;;;;;;;11.61;73.63;100059.72;4844347;29;19916;-79
2024/03/03 08:00:40;;;;;;;;;;;;;;;11.63;73.91;100063.69;4832957;29;19924;-79
2024/03/03 08:03:32;;;;;;;;;;;;;;;11.66;73.60;100057.56;4843273;29;19917;-79
2024/03/03 08:06:24;;;;;;;;;;;;;;;11.69;73.30;100061.53;4841915;29;19920;-78
2024/03/03 08:09:16;;;;;;;;;;;;;;;11.70;73.44;100047.59;4829274;29;19920;-78
2024/03/03 08:12:08;;;;;;;;;;;;;;;11.77;73.31;100053.31;4841510;29;19924;-78
2024/03/03 08:15:00;;;;;;;;;;;;;;;11.81;73.53;100061.59;4841140;29;19920;-78
2024/03/03 08:17:52;;;;;;;;;;;;;;;11.77;73.43;100058.75;4828801;29;19920;-78
2024/03/03 08:20:41;;;;;;;;;;;;;;;11.84;73.21;100067.16;4839418;29;19920;-78
2024/03/03 08:23:33;;;;;;;;;;;;;;;11.85;73.19;100059.78;4822989;29;19917;-78
2024/03/03 08:26:25;;;;;;;;;;;;;;;11.90;72.56;100065.78;4823508;29;19916;-79
2024/03/03 08:29:17;;;;;;;;;;;;;;;11.92;72.66;100060.00;4827790;29;20302;-79
2024/03/03 08:32:09;;;;;;;;;;;;;;;11.93;72.47;100053.44;4847010;29;19924;-77
2024/03/03 08:35:01;;;;;;;;;;;;;;;11.98;72.10;100056.75;4851780;29;19920;-79
2024/03/03 08:37:55;;;;;;;;;;;;;;;12.02;71.88;100048.66;4840669;29;19920;-80
2024/03/03 08:40:47;;;;;;;;;;;;;;;12.06;71.67;100052.28;4840885;29;19920;-81
2024/03/03 08:43:39;;;;;;;;;;;;;;;12.10;71.63;100049.66;4825674;29;19924;-80
2024/03/03 08:46:31;;;;;;;;;;;;;;;12.16;71.63;100048.31;4838431;29;20378;-80
2024/03/03 08:49:23;;;;;;;;;;;;;;;12.17;71.90;100052.63;4833040;29;20301;-79
2024/03/03 08:52:15;;;;;;;;;;;;;;;12.19;71.43;100047.66;4840558;29;19920;-79
2024/03/03 08:55:07;;;;;;;;;;;;;;;12.23;71.38;100054.00;4828811;29;19920;-80
2024/03/03 08:57:59;;;;;;;;;;;;;;;12.19;72.54;100056.59;4831598;29;19920;-80
2024/03/03 09:00:51;;;;;;;;;;;;;;;12.23;72.22;100054.00;4840961;29;19920;-80
2024/03/03 09:03:43;;;;;;;;;;;;;;;12.27;72.17;100049.44;4840428;29;19920;-79
2024/03/03 09:06:35;;;;;;;;;;;;;;;12.28;72.55;100051.03;4843100;29;19920;-80
2024/03/03 09:09:26;;;;;;;;;;;;;;;12.33;72.28;100051.59;4832881;29;20326;-80
2024/03/03 09:12:18;;;;;;;;;;;;;;;12.37;72.61;100048.97;4844065;29;19924;-79
2024/03/03 09:15:10;;;;;;;;;;;;;;;12.32;72.64;100051.94;4834019;29;19925;-79
2024/03/03 09:18:02;;;;;;;;;;;;;;;12.35;72.51;100048.50;4831826;29;20387;-78
2024/03/03 09:20:55;;;;;;;;;;;;;;;12.38;72.75;100059.56;4843807;29;20387;-79
2024/03/03 09:23:47;;;;;;;;;;;;;;;12.39;72.07;100057.63;4844321;29;19917;-79
2024/03/03 09:26:38;;;;;;;;;;;;;;;12.47;71.47;100064.06;4831894;29;19916;-79
2024/03/03 09:29:31;;;;;;;;;;;;;;;12.56;71.74;100062.00;4843656;29;19916;-79
2024/03/03 09:32:21;;;;;;;;;;;;;;;12.60;72.08;100057.44;4843563;29;20311;-80
2024/03/03 09:35:12;;;;;;;;;;;;;;;12.66;71.58;100069.69;4843607;29;19916;-80
2024/03/03 09:38:04;;;;;;;;;;;;;;;12.72;70.73;100060.94;4843293;29;20315;-80
2024/03/03 09:40:56;;;;;;;;;;;;;;;12.67;69.86;100047.53;4831958;29;19920;-78
2024/03/03 09:43:51;;;;;;;;;;;;;;;12.76;69.74;100056.38;4829557;29;19920;-79
2024/03/03 09:46:44;;;;;;;;;;;;;;;12.75;68.89;100040.34;4832598;29;19916;-79
2024/03/03 09:49:37;;;;;;;;;;;;;;;12.77;68.40;100049.78;4843094;29;19921;-79
2024/03/03 09:52:34;;;;;;;;;;;;;;;12.67;67.59;100042.09;4843391;29;19925;-78
2024/03/03 09:55:26;;;;;;;;;;;;;;;12.80;67.80;100048.28;4831743;29;19920;-79
2024/03/03 09:58:16;;;;;;;;;;;;;;;12.72;68.13;100044.56;4843216;29;19916;-79
2024/03/03 10:01:08;;;;;;;;;;;;;;;12.84;68.27;100041.03;4843304;29;19916;-80
2024/03/03 10:04:00;;;;;;;;;;;;;;;12.89;68.68;100038.06;4843532;29;19924;-78
2024/03/03 10:06:50;;;;;;;;;;;;;;;12.95;68.17;100047.59;4829014;29;20395;-78
2024/03/03 10:09:42;;;;;;;;;;;;;;;13.02;68.76;100046.97;4843076;29;19920;-78
2024/03/03 10:12:34;;;;;;;;;;;;;;;13.05;68.14;100052.53;4842959;29;19921;-78
2024/03/03 10:15:27;;;;;;;;;;;;;;;13.03;66.67;100043.09;4843245;29;19924;-78
2024/03/03 10:18:19;;;;;;;;;;;;;;;13.08;66.64;100046.38;4842141;29;19924;-78
2024/03/03 10:21:13;;;;;;;;;;;;;;;13.22;67.27;100035.06;4829919;29;19924;-78
2024/03/03 10:24:24;;;;;;;;;;;;;;;13.30;66.64;100047.00;4842648;29;19916;-78
2024/03/03 10:27:19;;;;;;;;;;;;;;;13.35;65.60;100038.53;4843975;29;19917;-82
2024/03/03 10:30:09;;;;;;;;;;;;;;;13.43;66.08;100043.84;4844708;29;19916;-84
2024/03/03 10:33:04;;;;;;;;;;;;;;;13.46;66.13;100048.59;4831984;29;19924;-79
2024/03/03 10:36:08;;;;;;;;;;;;;;;13.47;65.04;100044.72;4839336;29;20302;-78
2024/03/03 10:38:58;;;;;;;;;;;;;;;13.55;65.49;100046.50;4833367;29;19920;-78
2024/03/03 10:41:49;;;;;;;;;;;;;;;13.56;64.91;100042.59;4829766;29;19916;-78
2024/03/03 10:44:41;;;;;;;;;;;;;;;13.59;64.36;100044.66;4847578;29;19950;-79
2024/03/03 10:47:33;;;;;;;;;;;;;;;13.60;64.49;100045.44;4850024;29;19916;-79
2024/03/03 10:50:25;;;;;;;;;;;;;;;13.66;63.93;100044.81;4824587;29;19916;-79
2024/03/03 10:53:15;;;;;;;;;;;;;;;13.65;62.77;100037.78;4827375;29;20636;-79
2024/03/03 10:56:07;;;;;;;;;;;;;;;13.71;63.33;100030.13;4824725;29;19921;-79
2024/03/03 10:58:59;;;;;;;;;;;;;;;13.79;63.14;100022.88;4833490;29;19917;-79
2024/03/03 11:01:49;;;;;;;;;;;;;;;13.81;61.18;100023.31;4842972;29;19920;-79
2024/03/03 11:04:41;;;;;;;;;;;;;;;13.87;60.75;100033.63;4842575;29;19921;-79
2024/03/03 11:07:33;;;;;;;;;;;;;;;13.82;60.27;100024.88;4829296;29;19920;-79
2024/03/03 11:10:25;;;;;;;;;;;;;;;13.89;59.98;100012.22;4843357;29;20398;-79
2024/03/03 11:13:17;;;;;;;;;;;;;;;13.92;60.34;100013.41;4840676;29;19920;-80
2024/03/03 11:16:09;;;;;;;;;;;;;;;13.96;60.21;100014.31;4831416;29;19920;-79
2024/03/03 11:19:04;;;;;;;;;;;;;;;13.88;59.65;100013.34;4844359;29;20382;-79
2024/03/03 11:21:57;;;;;;;;;;;;;;;13.93;58.85;100006.81;4829757;29;19924;-77
2024/03/03 11:24:52;;;;;;;;;;;;;;;13.91;60.00;99990.00;4837455;29;19932;-79
2024/03/03 11:27:46;;;;;;;;;;;;;;;13.93;59.29;99990.41;4839409;29;19920;-80
2024/03/03 11:30:36;;;;;;;;;;;;;;;14.03;59.14;99992.59;4839829;29;20370;-80
2024/03/03 11:33:26;;;;;;;;;;;;;;;14.16;58.54;99980.41;4838158;29;20315;-79
2024/03/03 11:36:16;;;;;;;;;;;;;;;14.29;59.47;99984.59;4841406;29;19916;-79
2024/03/03 11:39:15;;;;;;;;;;;;;;;14.37;58.48;99982.84;4843690;29;20382;-79
2024/03/03 11:42:29;;;;;;;;;;;;;;;14.25;56.84;99975.53;4836585;29;19916;-79
2024/03/03 11:45:38;;;;;;;;;;;;;;;14.36;57.61;99976.59;4836625;29;19920;-80
2024/03/03 11:48:29;;;;;;;;;;;;;;;14.54;56.79;99964.06;4829853;29;19916;-85
2024/03/03 11:51:30;;;;;;;;;;;;;;;14.58;57.35;99961.41;4832078;29;19920;-80
2024/03/03 11:54:36;;;;;;;;;;;;;;;14.55;55.98;99967.59;4842417;29;19916;-79
2024/03/03 11:57:36;;;;;;;;;;;;;;;14.66;55.65;99959.59;4841609;29;19916;-79
2024/03/03 12:00:26;;;;;;;;;;;;;;;14.78;54.94;99943.81;4833538;29;20387;-77
2024/03/03 12:03:18;;;;;;;;;;;;;;;14.84;55.24;99952.53;4827574;29;19924;-79
2024/03/03 12:06:13;;;;;;;;;;;;;;;14.87;55.27;99949.06;4827293;29;19916;-79
2024/03/03 12:09:05;;;;;;;;;;;;;;;14.87;55.50;99938.13;4841118;29;19920;-78
2024/03/03 12:12:00;;;;;;;;;;;;;;;14.85;55.49;99946.69;4841204;29;19924;-79
2024/03/03 12:14:52;;;;;;;;;;;;;;;14.90;55.17;99940.91;4847559;29;19920;-78
2024/03/03 12:17:42;;;;;;;;;;;;;;;14.89;55.78;99931.13;4822392;29;19917;-80
2024/03/03 12:20:34;;;;;;;;;;;;;;;15.03;56.14;99930.59;4824361;29;19916;-79
2024/03/03 12:23:23;;;;;;;;;;;;;;;15.08;55.88;99930.31;4836076;29;19915;-80
2024/03/03 12:26:16;;;;;;;;;;;;;;;15.12;55.78;99922.94;4838810;29;19920;-80
2024/03/03 12:29:09;;;;;;;;;;;;;;;15.16;54.21;99918.31;4844472;29;20389;-79
2024/03/03 12:32:05;;;;;;;;;;;;;;;15.26;54.08;99906.75;4828563;29;19924;-79
2024/03/03 12:35:01;;;;;;;;;;;;;;;15.26;53.52;99906.75;4847332;29;19916;-79
2024/03/03 12:37:53;;;;;;;;;;;;;;;15.18;53.37;99887.81;4823919;29;20306;-79
2024/03/03 12:40:45;;;;;;;;;;;;;;;15.28;53.61;99890.75;4827049;29;20298;-79
2024/03/03 12:43:37;;;;;;;;;;;;;;;15.28;53.54;99874.31;4837896;29;19916;-80
2024/03/03 12:46:27;;;;;;;;;;;;;;;15.29;53.79;99878.59;4821716;29;19916;-80
2024/03/03 12:49:19;;;;;;;;;;;;;;;15.33;51.46;99868.53;4839641;29;19924;-79
2024/03/03 12:52:13;;;;;;;;;;;;;;;15.48;52.10;99869.53;4827890;29;20417;-80
2024/03/03 12:55:05;;;;;;;;;;;;;;;15.60;51.90;99865.78;4833079;29;20306;-79
2024/03/03 12:57:57;;;;;;;;;;;;;;;15.56;50.74;99865.75;4837285;29;19920;-80
2024/03/03 13:00:49;;;;;;;;;;;;;;;15.52;51.29;99869.59;4829544;29;19917;-79
2024/03/03 13:04:08;;;;;;;;;;;;;;;15.43;50.86;99869.03;4828288;29;20386;-80
2024/03/03 13:07:03;;;;;;;;;;;;;;;15.19;50.65;99859.25;4837306;29;19916;-82
2024/03/03 13:09:55;;;;;;;;;;;;;;;15.22;51.22;99861.28;4830944;29;19916;-79
2024/03/03 13:12:43;;;;;;;;;;;;;;;15.08;50.89;99861.06;4823962;29;20526;-81
2024/03/03 13:15:36;;;;;;;;;;;;;;;15.11;51.29;99869.31;4827440;29;19917;-80
2024/03/03 13:18:28;;;;;;;;;;;;;;;15.07;51.42;99873.94;4822372;29;19917;-80
2024/03/03 13:21:20;;;;;;;;;;;;;;;15.04;51.81;99871.94;4831732;29;19924;-81
2024/03/03 13:24:14;;;;;;;;;;;;;;;14.95;51.33;99863.16;4827761;29;20318;-80
2024/03/03 13:27:03;;;;;;;;;;;;;;;15.01;52.13;99861.72;4826005;29;19916;-81
2024/03/03 13:29:55;;;;;;;;;;;;;;;14.96;52.49;99862.03;4826141;29;19916;-81
2024/03/03 13:32:45;;;;;;;;;;;;;;;14.87;53.98;99847.78;4827104;29;19924;-80
2024/03/03 13:35:37;;;;;;;;;;;;;;;14.82;53.94;99842.63;4833798;29;19920;-81
2024/03/03 13:38:29;;;;;;;;;;;;;;;14.82;54.02;99843.41;4832879;29;19916;-80
2024/03/03 13:41:21;;;;;;;;;;;;;;;14.84;53.15;99846.56;4838894;29;19924;-81
2024/03/03 13:44:13;;;;;;;;;;;;;;;14.82;55.05;99845.34;4829938;29;19916;-80
2024/03/03 13:47:08;;;;;;;;;;;;;;;14.92;55.29;99847.50;4840364;29;19916;-81
2024/03/03 13:50:00;;;;;;;;;;;;;;;14.99;56.27;99836.63;4839395;29;19916;-81
2024/03/03 13:52:52;;;;;;;;;;;;;;;15.09;55.05;99838.75;4842420;29;19928;-80
2024/03/03 13:55:42;;;;;;;;;;;;;;;15.13;54.34;99839.63;4829673;29;19916;-81
2024/03/03 13:58:32;;;;;;;;;;;;;;;15.14;54.85;99840.41;4833469;29;20607;-80
2024/03/03 14:01:24;;;;;;;;;;;;;;;14.98;55.15;99835.09;4836200;29;20570;-80
2024/03/03 14:04:13;;;;;;;;;;;;;;;15.01;53.76;99830.81;4844010;29;19920;-80
2024/03/03 14:07:03;;;;;;;;;;;;;;;14.81;52.15;99835.56;4843847;29;19924;-81
2024/03/03 14:09:52;;;;;;;;;;;;;;;14.83;52.75;99823.06;4843231;29;19920;-80
2024/03/03 14:12:39;;;;;;;;;;;;;;;14.81;52.98;99825.41;4843655;29;19920;-80
2024/03/03 14:15:29;;;;;;;;;;;;;;;14.87;54.33;99823.16;4843933;29;19920;-80
2024/03/03 14:18:18;;;;;;;;;;;;;;;14.81;53.05;99824.59;4843464;29;19920;-80
2024/03/03 14:21:08;;;;;;;;;;;;;;;14.71;53.89;99827.94;4837483;29;19916;-81
2024/03/03 14:23:57;;;;;;;;;;;;;;;14.76;53.12;99816.69;4843358;29;19916;-80
2024/03/03 14:26:46;;;;;;;;;;;;;;;14.80;54.23;99820.28;4838601;29;19935;-81
2024/03/03 14:29:36;;;;;;;;;;;;;;;14.64;54.49;99823.13;4841973;29;19916;-80
2024/03/03 14:32:23;;;;;;;;;;;;;;;14.71;55.10;99820.53;4842800;29;19921;-80
2024/03/03 14:35:13;;;;;;;;;;;;;;;14.71;54.79;99814.28;4843015;29;19920;-80
2024/03/03 14:38:02;;;;;;;;;;;;;;;14.71;54.72;99811.53;4842888;29;20554;-80
2024/03/03 14:40:52;;;;;;;;;;;;;;;14.71;55.12;99806.06;4843047;29;19917;-80
2024/03/03 14:43:41;;;;;;;;;;;;;;;14.73;55.35;99807.25;4836991;29;20298;-81
2024/03/03 14:46:30;;;;;;;;;;;;;;;14.76;55.40;99797.53;4835818;29;19916;-81
2024/03/03 14:49:20;;;;;;;;;;;;;;;14.73;55.47;99795.56;4844374;29;19920;-81